Island Escape — C6SK4 — position and weather

sailwx.info

Track history (hours):
 
Tides and Currents Weather Stations Pressure Air Temp Water Temp Dewpoint Dewpoint Depression Visibility Wind Speed Wind Dir Waves Ship Positions

Island Escape

Operator: V Ships Leisure SAM

Last reported at 2015-Sep-02 21:30 UTC. Time now 2015-Sep-04 03:49 UTC.
Position N 36°24' W 002°57'.

Length 185 m; draft 7.3 m.

Type: Passenger vessel. MMSI: 311368000.

Date/timePositionNaut miles runAvg speedWind from/ knotsBaromVisibWave heightAir tempDewpointWater temp
2015-Sep-02 21:30N 36°24' W 002°57'1111.6
2015-Sep-02 20:32N 36°24' W 002°43'1111.2
2015-Sep-02 19:32N 36°25' W 002°29'1111.1
2015-Sep-02 18:33N 36°26' W 002°16'1110.8
2015-Sep-02 17:33N 36°32' W 002°04'1211.9
2015-Sep-02 16:31N 36°38' W 001°51'1212.0
2015-Sep-02 15:33N 36°44' W 001°39'4212.3
2015-Sep-02 12:11N 37°09' W 000°57'1015.2
2015-Sep-02 11:32N 37°14' W 000°46'1815.3
2015-Sep-02 10:21N 37°24' W 000°27'1214.9
2015-Sep-02 09:33N 37°31' W 000°15'13714.9
2015-Sep-02 00:21N 38°56' E 002°02'1214.6
2015-Sep-01 23:33N 39°05' E 002°12'1515.1
2015-Sep-01 22:33N 39°17' E 002°24'1515.1
2015-Sep-01 21:33N 39°29' E 002°36'5 4.7
2015-Sep-01 20:33N 39°33' E 002°38'0 0.0
2015-Sep-01 19:33N 39°33' E 002°38'0 0.0
2015-Sep-01 18:33N 39°33' E 002°38'0 0.0
2015-Sep-01 17:33N 39°33' E 002°38'0 0.0
2015-Sep-01 16:33N 39°33' E 002°38'0 0.0
2015-Sep-01 15:33N 39°33' E 002°38'0 0.0
2015-Sep-01 14:33N 39°33' E 002°38'0 0.0
2015-Sep-01 13:33N 39°33' E 002°38'0 0.0
2015-Sep-01 12:33N 39°33' E 002°38'0 0.0
2015-Sep-01 11:33N 39°33' E 002°38'0 0.0
2015-Sep-01 10:33N 39°33' E 002°38'0 0.0
2015-Sep-01 09:33N 39°33' E 002°38'0 0.0
2015-Sep-01 08:33N 39°33' E 002°38'0 0.0
2015-Sep-01 07:30N 39°33' E 002°38'0 0.0
2015-Sep-01 06:33N 39°33' E 002°38'0 0.0
2015-Sep-01 05:33N 39°33' E 002°38'0 0.0
2015-Sep-01 04:33N 39°33' E 002°38'0 0.0
2015-Sep-01 03:33N 39°33' E 002°38'6 5.6
2015-Sep-01 02:33N 39°28' E 002°36'1212.5
2015-Sep-01 01:33N 39°26' E 002°20'1313.3
2015-Sep-01 00:33N 39°37' E 002°10'1312.8
2015-Aug-31 23:33N 39°50' E 002°10'1313.0
2015-Aug-31 22:33N 40°03' E 002°11'1312.8
2015-Aug-31 21:33N 40°16' E 002°11'1312.4
2015-Aug-31 20:33N 40°28' E 002°12'1312.7
2015-Aug-31 19:33N 40°41' E 002°12'1212.3
2015-Aug-31 18:33N 40°53' E 002°12'1312.6
2015-Aug-31 17:33N 41°06' E 002°13'1212.4
2015-Aug-31 16:33N 41°18' E 002°14'4 0.4
2015-Aug-31 05:31N 41°22' E 002°11'6 6.0
2015-Aug-31 04:29N 41°20' E 002°19'1212.6
2015-Aug-31 03:33N 41°22' E 002°34'1312.1
2015-Aug-31 02:27N 41°25' E 002°51'5911.3
2015-Aug-30 21:12N 42°16' E 003°31'811.7
2015-Aug-30 20:33N 42°24' E 003°33'1212.0
2015-Aug-30 19:33N 42°35' E 003°36'1212.1
2015-Aug-30 18:32N 42°48' E 003°39'1211.9
2015-Aug-30 17:33N 42°59' E 003°42'1212.0
2015-Aug-30 16:33N 43°11' E 003°44'1212.1
2015-Aug-30 15:33N 43°23' E 003°45'2 2.2
2015-Aug-30 14:31N 43°24' E 003°42'0 0.0
2015-Aug-30 12:31N 43°24' E 003°42'21 2.3
2015-Aug-30 03:31N 43°14' E 004°07'1413.7
2015-Aug-30 02:30N 43°10' E 004°26'1213.2
2015-Aug-30 01:34N 43°06' E 004°42'1312.6
2015-Aug-30 00:33N 43°02' E 004°58'6512.5
2015-Aug-29 19:19N 42°56' E 006°27'1615.3
2015-Aug-29 18:15N 43°07' E 006°43'1116.0
2015-Aug-29 17:33N 43°16' E 006°51'1515.0
2015-Aug-29 16:33N 43°30' E 006°60'2 1.7
2015-Aug-29 15:11N 43°32' E 007°01'0 0.0
2015-Aug-29 14:23N 43°32' E 007°01'0 0.0
2015-Aug-29 13:29N 43°32' E 007°01'0 0.0
2015-Aug-29 12:29N 43°32' E 007°01'0 0.0
2015-Aug-29 11:23N 43°32' E 007°01'0 0.0
2015-Aug-29 10:29N 43°32' E 007°01'0 0.0
2015-Aug-29 09:29N 43°32' E 007°01'0 0.0
2015-Aug-29 08:23N 43°32' E 007°01'0 0.0
2015-Aug-29 07:29N 43°32' E 007°01'0 0.0
2015-Aug-29 06:11N 43°32' E 007°01'0 0.0
2015-Aug-29 05:17N 43°32' E 007°01'0 0.1
2015-Aug-29 04:29N 43°32' E 007°01'4 4.8
2015-Aug-29 03:33N 43°28' E 007°04'1312.9
2015-Aug-29 02:33N 43°29' E 007°22'1313.3
2015-Aug-29 01:33N 43°29' E 007°40'1413.4
2015-Aug-29 00:33N 43°30' E 007°59'1313.2
2015-Aug-28 23:33N 43°30' E 008°17'1313.0
2015-Aug-28 22:34N 43°30' E 008°35'1313.0
2015-Aug-28 21:34N 43°31' E 008°53'1413.8
2015-Aug-28 20:33N 43°31' E 009°12'1515.2
2015-Aug-28 19:34N 43°31' E 009°33'1515.3
2015-Aug-28 18:33N 43°31' E 009°54'1514.7
2015-Aug-28 17:33N 43°32' E 010°14'3 0.3
2015-Aug-28 09:14N 43°33' E 010°18'0 0.0
2015-Aug-28 08:32N 43°33' E 010°18'21 3.4
2015-Aug-28 02:27N 43°14' E 010°07'13 5.5
2015-Aug-28 00:10N 43°02' E 010°01'1 0.9
2015-Aug-27 23:14N 43°03' E 010°02'3 1.0
2015-Aug-27 20:33N 43°05' E 010°03'1 0.7
2015-Aug-27 19:33N 43°06' E 010°03'1 0.5
2015-Aug-27 18:19N 43°06' E 010°04'22 3.2
2015-Aug-27 11:32N 42°49' E 010°21'0 0.0
2015-Aug-27 10:32N 42°49' E 010°21'0 0.0
2015-Aug-27 09:29N 42°49' E 010°21'0 0.0
2015-Aug-27 07:32N 42°49' E 010°21'53 7.5
2015-Aug-27 00:30N 43°01' E 009°11'5613.5
2015-Aug-26 20:20N 42°28' E 008°10'9015.3
2015-Aug-26 14:30N 41°25' E 006°43'9415.3
2015-Aug-26 08:22N 40°21' E 005°13'1715.5
2015-Aug-26 07:18N 40°09' E 004°57'3215.3
2015-Aug-26 05:12N 39°47' E 004°27'1015.3
2015-Aug-26 04:33N 39°41' E 004°16'1515.6
2015-Aug-26 03:33N 39°32' E 003°60'1615.8
2015-Aug-26 02:32N 39°24' E 003°43'1615.8
2015-Aug-26 01:33N 39°15' E 003°26'1615.9
2015-Aug-26 00:33N 39°06' E 003°09'1514.9
2015-Aug-25 23:33N 39°02' E 002°50'1515.1
2015-Aug-25 22:33N 39°17' E 002°44'1515.1
2015-Aug-25 21:34N 39°31' E 002°39'2 2.2
2015-Aug-25 20:31N 39°33' E 002°38'0 0.0
2015-Aug-25 19:31N 39°33' E 002°38'0 0.0
2015-Aug-25 18:31N 39°33' E 002°38'0 0.0
2015-Aug-25 17:31N 39°33' E 002°38'0 0.0
2015-Aug-25 16:31N 39°33' E 002°38'0 0.0
2015-Aug-25 15:31N 39°33' E 002°38'0 0.0
2015-Aug-25 14:31N 39°33' E 002°38'0 0.0
2015-Aug-25 13:31N 39°33' E 002°38'0 0.0
2015-Aug-25 12:31N 39°33' E 002°38'0 0.0
2015-Aug-25 11:31N 39°33' E 002°38'0 0.0
2015-Aug-25 10:31N 39°33' E 002°38'0 0.0
2015-Aug-25 09:31N 39°33' E 002°38'0 0.0
2015-Aug-25 08:32N 39°33' E 002°38'0 0.0
2015-Aug-25 07:32N 39°33' E 002°38'0 0.0
2015-Aug-25 06:32N 39°33' E 002°38'0 0.0
2015-Aug-25 05:32N 39°33' E 002°38'0 0.0
2015-Aug-25 04:32N 39°33' E 002°38'0 0.1
2015-Aug-25 03:32N 39°33' E 002°38'6 6.6
2015-Aug-25 02:33N 39°27' E 002°41'1515.1
2015-Aug-25 01:33N 39°13' E 002°46'1111.0
2015-Aug-25 00:33N 39°03' E 002°52'1212.3
2015-Aug-24 23:34N 39°03' E 003°08'1212.0
2015-Aug-24 22:33N 39°10' E 003°21'1212.3
2015-Aug-24 21:33N 39°18' E 003°33'1612.4
2015-Aug-24 20:13N 39°28' E 003°50'812.5
2015-Aug-24 19:33N 39°34' E 003°58'  
Track history (hours):
 
Tides and Currents Weather Stations Pressure Air Temp Water Temp Dewpoint Dewpoint Depression Visibility Wind Speed Wind Dir Waves Ship Positions

Island Escape

Operator: V Ships Leisure SAM

Last reported at 2015-Sep-02 21:30 UTC. Time now 2015-Sep-04 03:49 UTC.
Position N 36°24' W 002°57'.

Length 185 m; draft 7.3 m.

Type: Passenger vessel. MMSI: 311368000.

Date/timePositionNaut miles runAvg speedWind from/ knotsBaromVisibWave heightAir tempDewpointWater temp
2015-Sep-02 21:30N 36°24' W 002°57'1111.6
2015-Sep-02 20:32N 36°24' W 002°43'1111.2
2015-Sep-02 19:32N 36°25' W 002°29'1111.1
2015-Sep-02 18:33N 36°26' W 002°16'1110.8
2015-Sep-02 17:33N 36°32' W 002°04'1211.9
2015-Sep-02 16:31N 36°38' W 001°51'1212.0
2015-Sep-02 15:33N 36°44' W 001°39'4212.3
2015-Sep-02 12:11N 37°09' W 000°57'1015.2
2015-Sep-02 11:32N 37°14' W 000°46'1815.3
2015-Sep-02 10:21N 37°24' W 000°27'1214.9
2015-Sep-02 09:33N 37°31' W 000°15'13714.9
2015-Sep-02 00:21N 38°56' E 002°02'1214.6
2015-Sep-01 23:33N 39°05' E 002°12'1515.1
2015-Sep-01 22:33N 39°17' E 002°24'1515.1
2015-Sep-01 21:33N 39°29' E 002°36'5 4.7
2015-Sep-01 20:33N 39°33' E 002°38'0 0.0
2015-Sep-01 19:33N 39°33' E 002°38'0 0.0
2015-Sep-01 18:33N 39°33' E 002°38'0 0.0
2015-Sep-01 17:33N 39°33' E 002°38'0 0.0
2015-Sep-01 16:33N 39°33' E 002°38'0 0.0
2015-Sep-01 15:33N 39°33' E 002°38'0 0.0
2015-Sep-01 14:33N 39°33' E 002°38'0 0.0
2015-Sep-01 13:33N 39°33' E 002°38'0 0.0
2015-Sep-01 12:33N 39°33' E 002°38'0 0.0
2015-Sep-01 11:33N 39°33' E 002°38'0 0.0
2015-Sep-01 10:33N 39°33' E 002°38'0 0.0
2015-Sep-01 09:33N 39°33' E 002°38'0 0.0
2015-Sep-01 08:33N 39°33' E 002°38'0 0.0
2015-Sep-01 07:30N 39°33' E 002°38'0 0.0
2015-Sep-01 06:33N 39°33' E 002°38'0 0.0
2015-Sep-01 05:33N 39°33' E 002°38'0 0.0
2015-Sep-01 04:33N 39°33' E 002°38'0 0.0
2015-Sep-01 03:33N 39°33' E 002°38'6 5.6
2015-Sep-01 02:33N 39°28' E 002°36'1212.5
2015-Sep-01 01:33N 39°26' E 002°20'1313.3
2015-Sep-01 00:33N 39°37' E 002°10'1312.8
2015-Aug-31 23:33N 39°50' E 002°10'1313.0
2015-Aug-31 22:33N 40°03' E 002°11'1312.8
2015-Aug-31 21:33N 40°16' E 002°11'1312.4
2015-Aug-31 20:33N 40°28' E 002°12'1312.7
2015-Aug-31 19:33N 40°41' E 002°12'1212.3
2015-Aug-31 18:33N 40°53' E 002°12'1312.6
2015-Aug-31 17:33N 41°06' E 002°13'1212.4
2015-Aug-31 16:33N 41°18' E 002°14'4 0.4
2015-Aug-31 05:31N 41°22' E 002°11'6 6.0
2015-Aug-31 04:29N 41°20' E 002°19'1212.6
2015-Aug-31 03:33N 41°22' E 002°34'1312.1
2015-Aug-31 02:27N 41°25' E 002°51'5911.3
2015-Aug-30 21:12N 42°16' E 003°31'811.7
2015-Aug-30 20:33N 42°24' E 003°33'1212.0
2015-Aug-30 19:33N 42°35' E 003°36'1212.1
2015-Aug-30 18:32N 42°48' E 003°39'1211.9
2015-Aug-30 17:33N 42°59' E 003°42'1212.0
2015-Aug-30 16:33N 43°11' E 003°44'1212.1
2015-Aug-30 15:33N 43°23' E 003°45'2 2.2
2015-Aug-30 14:31N 43°24' E 003°42'0 0.0
2015-Aug-30 12:31N 43°24' E 003°42'21 2.3
2015-Aug-30 03:31N 43°14' E 004°07'1413.7
2015-Aug-30 02:30N 43°10' E 004°26'1213.2
2015-Aug-30 01:34N 43°06' E 004°42'1312.6
2015-Aug-30 00:33N 43°02' E 004°58'6512.5
2015-Aug-29 19:19N 42°56' E 006°27'1615.3
2015-Aug-29 18:15N 43°07' E 006°43'1116.0
2015-Aug-29 17:33N 43°16' E 006°51'1515.0
2015-Aug-29 16:33N 43°30' E 006°60'2 1.7
2015-Aug-29 15:11N 43°32' E 007°01'0 0.0
2015-Aug-29 14:23N 43°32' E 007°01'0 0.0
2015-Aug-29 13:29N 43°32' E 007°01'0 0.0
2015-Aug-29 12:29N 43°32' E 007°01'0 0.0
2015-Aug-29 11:23N 43°32' E 007°01'0 0.0
2015-Aug-29 10:29N 43°32' E 007°01'0 0.0
2015-Aug-29 09:29N 43°32' E 007°01'0 0.0
2015-Aug-29 08:23N 43°32' E 007°01'0 0.0
2015-Aug-29 07:29N 43°32' E 007°01'0 0.0
2015-Aug-29 06:11N 43°32' E 007°01'0 0.0
2015-Aug-29 05:17N 43°32' E 007°01'0 0.1
2015-Aug-29 04:29N 43°32' E 007°01'4 4.8
2015-Aug-29 03:33N 43°28' E 007°04'1312.9
2015-Aug-29 02:33N 43°29' E 007°22'1313.3
2015-Aug-29 01:33N 43°29' E 007°40'1413.4
2015-Aug-29 00:33N 43°30' E 007°59'1313.2
2015-Aug-28 23:33N 43°30' E 008°17'1313.0
2015-Aug-28 22:34N 43°30' E 008°35'1313.0
2015-Aug-28 21:34N 43°31' E 008°53'1413.8
2015-Aug-28 20:33N 43°31' E 009°12'1515.2
2015-Aug-28 19:34N 43°31' E 009°33'1515.3
2015-Aug-28 18:33N 43°31' E 009°54'1514.7
2015-Aug-28 17:33N 43°32' E 010°14'3 0.3
2015-Aug-28 09:14N 43°33' E 010°18'0 0.0
2015-Aug-28 08:32N 43°33' E 010°18'21 3.4
2015-Aug-28 02:27N 43°14' E 010°07'13 5.5
2015-Aug-28 00:10N 43°02' E 010°01'1 0.9
2015-Aug-27 23:14N 43°03' E 010°02'3 1.0
2015-Aug-27 20:33N 43°05' E 010°03'1 0.7
2015-Aug-27 19:33N 43°06' E 010°03'1 0.5
2015-Aug-27 18:19N 43°06' E 010°04'22 3.2
2015-Aug-27 11:32N 42°49' E 010°21'0 0.0
2015-Aug-27 10:32N 42°49' E 010°21'0 0.0
2015-Aug-27 09:29N 42°49' E 010°21'0 0.0
2015-Aug-27 07:32N 42°49' E 010°21'53 7.5
2015-Aug-27 00:30N 43°01' E 009°11'5613.5
2015-Aug-26 20:20N 42°28' E 008°10'9015.3
2015-Aug-26 14:30N 41°25' E 006°43'9415.3
2015-Aug-26 08:22N 40°21' E 005°13'1715.5
2015-Aug-26 07:18N 40°09' E 004°57'3215.3
2015-Aug-26 05:12N 39°47' E 004°27'1015.3
2015-Aug-26 04:33N 39°41' E 004°16'1515.6
2015-Aug-26 03:33N 39°32' E 003°60'1615.8
2015-Aug-26 02:32N 39°24' E 003°43'1615.8
2015-Aug-26 01:33N 39°15' E 003°26'1615.9
2015-Aug-26 00:33N 39°06' E 003°09'1514.9
2015-Aug-25 23:33N 39°02' E 002°50'1515.1
2015-Aug-25 22:33N 39°17' E 002°44'1515.1
2015-Aug-25 21:34N 39°31' E 002°39'2 2.2
2015-Aug-25 20:31N 39°33' E 002°38'0 0.0
2015-Aug-25 19:31N 39°33' E 002°38'0 0.0
2015-Aug-25 18:31N 39°33' E 002°38'0 0.0
2015-Aug-25 17:31N 39°33' E 002°38'0 0.0
2015-Aug-25 16:31N 39°33' E 002°38'0 0.0
2015-Aug-25 15:31N 39°33' E 002°38'0 0.0
2015-Aug-25 14:31N 39°33' E 002°38'0 0.0
2015-Aug-25 13:31N 39°33' E 002°38'0 0.0
2015-Aug-25 12:31N 39°33' E 002°38'0 0.0
2015-Aug-25 11:31N 39°33' E 002°38'0 0.0
2015-Aug-25 10:31N 39°33' E 002°38'0 0.0
2015-Aug-25 09:31N 39°33' E 002°38'0 0.0
2015-Aug-25 08:32N 39°33' E 002°38'0 0.0
2015-Aug-25 07:32N 39°33' E 002°38'0 0.0
2015-Aug-25 06:32N 39°33' E 002°38'0 0.0
2015-Aug-25 05:32N 39°33' E 002°38'0 0.0
2015-Aug-25 04:32N 39°33' E 002°38'0 0.1
2015-Aug-25 03:32N 39°33' E 002°38'6 6.6
2015-Aug-25 02:33N 39°27' E 002°41'1515.1
2015-Aug-25 01:33N 39°13' E 002°46'1111.0
2015-Aug-25 00:33N 39°03' E 002°52'1212.3
2015-Aug-24 23:34N 39°03' E 003°08'1212.0
2015-Aug-24 22:33N 39°10' E 003°21'1212.3
2015-Aug-24 21:33N 39°18' E 003°33'1612.4
2015-Aug-24 20:13N 39°28' E 003°50'812.5
2015-Aug-24 19:33N 39°34' E 003°58'  

Dump ship's entire track history